createdAt,value
2016-12-17T00:00:58.968Z,0
2016-12-17T00:01:58.943Z,0
2016-12-17T00:02:58.926Z,0
2016-12-17T00:03:58.908Z,0
2016-12-17T00:04:58.892Z,0
2016-12-17T00:05:58.877Z,0
2016-12-17T00:06:58.888Z,0
2016-12-17T00:07:58.843Z,0
2016-12-17T00:08:58.827Z,0
2016-12-17T00:09:58.810Z,0
2016-12-17T00:10:58.790Z,0
2016-12-17T00:11:58.774Z,0
2016-12-17T00:12:58.759Z,0
2016-12-17T00:13:58.745Z,0
2016-12-17T00:14:58.727Z,0
2016-12-17T00:15:58.710Z,0
2016-12-17T00:16:58.688Z,0
2016-12-17T00:17:58.680Z,0
2016-12-17T00:18:58.971Z,0
2016-12-17T00:19:58.642Z,0
2016-12-17T00:20:58.625Z,0
2016-12-17T00:21:58.609Z,0
2016-12-17T00:22:58.591Z,0
2016-12-17T00:23:58.575Z,0
2016-12-17T00:24:58.858Z,0
2016-12-17T00:25:58.541Z,0
2016-12-17T00:26:58.523Z,0
2016-12-17T00:27:58.538Z,0
2016-12-17T00:28:58.489Z,0
2016-12-17T00:29:58.476Z,0
2016-12-17T00:30:58.464Z,0
2016-12-17T00:31:58.437Z,0
2016-12-17T00:32:58.440Z,0
2016-12-17T00:33:58.405Z,0
2016-12-17T00:34:58.386Z,0
2016-12-17T00:35:58.374Z,0
2016-12-17T00:36:58.354Z,0
2016-12-17T00:37:58.339Z,0
2016-12-17T00:38:58.321Z,0
2016-12-17T00:39:58.306Z,0
2016-12-17T00:40:58.289Z,0
2016-12-17T00:41:58.272Z,0
2016-12-17T00:42:58.256Z,0
2016-12-17T00:43:58.236Z,0
2016-12-17T00:44:58.219Z,0
2016-12-17T00:45:58.210Z,0
2016-12-17T00:46:58.187Z,0
2016-12-17T00:47:58.204Z,0
2016-12-17T00:48:58.152Z,0
2016-12-17T00:49:58.162Z,0
2016-12-17T00:50:58.120Z,0
2016-12-17T00:51:58.103Z,0
2016-12-17T00:52:58.089Z,0
2016-12-17T00:53:58.072Z,0
2016-12-17T00:54:58.053Z,0
2016-12-17T00:55:58.336Z,0
2016-12-17T00:56:58.020Z,0
2016-12-17T00:57:58.005Z,0
2016-12-17T00:58:57.990Z,0
2016-12-17T00:59:57.972Z,0
2016-12-17T01:00:57.954Z,0
2016-12-17T01:01:57.935Z,0
2016-12-17T01:02:57.914Z,0
2016-12-17T01:03:57.902Z,0
2016-12-17T01:04:58.194Z,0
2016-12-17T01:05:57.872Z,0
2016-12-17T01:06:57.850Z,0
2016-12-17T01:07:57.831Z,0
2016-12-17T01:08:57.818Z,0
2016-12-17T01:09:57.800Z,0
2016-12-17T01:10:57.782Z,0
2016-12-17T01:11:57.768Z,0
2016-12-17T01:12:57.748Z,0
2016-12-17T01:13:58.034Z,0
2016-12-17T01:14:57.714Z,0
2016-12-17T01:15:57.703Z,0
2016-12-17T01:16:57.683Z,0
2016-12-17T01:17:57.665Z,0
2016-12-17T01:18:57.647Z,0
2016-12-17T01:19:57.634Z,0
2016-12-17T01:20:57.618Z,0
2016-12-17T01:21:57.595Z,0
2016-12-17T01:22:57.581Z,0
2016-12-17T01:23:57.570Z,0
2016-12-17T01:24:57.547Z,0
2016-12-17T01:25:57.533Z,0
2016-12-17T01:26:57.510Z,0
2016-12-17T01:27:57.498Z,0
2016-12-17T01:28:57.478Z,0
2016-12-17T01:29:57.767Z,0
2016-12-17T01:30:57.442Z,0
2016-12-17T01:31:57.432Z,0
2016-12-17T01:32:57.407Z,0
2016-12-17T01:33:57.699Z,0
2016-12-17T01:34:57.380Z,0
2016-12-17T01:35:57.361Z,0
2016-12-17T01:36:57.344Z,0
2016-12-17T01:37:57.324Z,0
2016-12-17T01:38:57.309Z,0
2016-12-17T01:39:57.292Z,0
2016-12-17T01:40:57.279Z,0
2016-12-17T01:41:57.260Z,0
2016-12-17T01:42:57.244Z,0
2016-12-17T01:43:57.223Z,0
2016-12-17T01:44:57.210Z,0
2016-12-17T01:45:57.794Z,0
2016-12-17T01:46:57.207Z,0
2016-12-17T01:47:57.156Z,0
2016-12-17T01:48:57.139Z,0
2016-12-17T01:49:57.127Z,0
2016-12-17T01:50:57.107Z,0
2016-12-17T01:51:57.089Z,0
2016-12-17T01:52:57.104Z,0
2016-12-17T01:53:57.057Z,0
2016-12-17T01:54:57.040Z,0
2016-12-17T01:55:57.031Z,0
2016-12-17T01:56:57.005Z,0
2016-12-17T01:57:56.986Z,0
2016-12-17T01:58:56.970Z,0
2016-12-17T01:59:56.954Z,0
2016-12-17T02:00:56.936Z,0
2016-12-17T02:01:56.916Z,0
2016-12-17T02:02:56.907Z,0
2016-12-17T02:03:57.192Z,0
2016-12-17T02:04:56.867Z,0
2016-12-17T02:05:56.853Z,0
2016-12-17T02:06:56.835Z,0
2016-12-17T02:07:56.819Z,0
2016-12-17T02:08:56.800Z,0
2016-12-17T02:09:56.781Z,0
2016-12-17T02:10:56.771Z,0
2016-12-17T02:11:56.746Z,0
2016-12-17T02:12:56.738Z,0
2016-12-17T02:13:57.017Z,0
2016-12-17T02:14:56.705Z,0
2016-12-17T02:15:56.686Z,0
2016-12-17T02:16:56.663Z,0
2016-12-17T02:17:56.651Z,0
2016-12-17T02:18:56.629Z,0
2016-12-17T02:19:56.616Z,0
2016-12-17T02:20:56.600Z,0
2016-12-17T02:21:56.581Z,0
2016-12-17T02:22:56.562Z,0
2016-12-17T02:23:56.544Z,0
2016-12-17T02:24:56.527Z,0
2016-12-17T02:25:56.511Z,0
2016-12-17T02:26:56.503Z,0
2016-12-17T02:27:56.514Z,0
2016-12-17T02:28:56.459Z,0
2016-12-17T02:29:56.448Z,0
2016-12-17T02:30:56.427Z,0
2016-12-17T02:31:56.409Z,0
2016-12-17T02:32:56.427Z,0
2016-12-17T02:33:56.376Z,0
2016-12-17T02:34:56.364Z,0
2016-12-17T02:35:56.340Z,0
2016-12-17T02:36:56.326Z,0
2016-12-17T02:37:56.308Z,0
2016-12-17T02:38:56.289Z,0
2016-12-17T02:39:56.275Z,0
2016-12-17T02:40:56.258Z,0
2016-12-17T02:41:56.237Z,0
2016-12-17T02:42:56.524Z,0
2016-12-17T02:43:56.209Z,0
2016-12-17T02:44:56.185Z,0
2016-12-17T02:45:56.168Z,0
2016-12-17T02:46:56.153Z,0
2016-12-17T02:47:56.137Z,0
2016-12-17T02:48:56.151Z,0
2016-12-17T02:49:56.101Z,0
2016-12-17T02:50:56.085Z,0
2016-12-17T02:51:56.068Z,0
2016-12-17T02:52:56.056Z,0
2016-12-17T02:53:56.033Z,0
2016-12-17T02:54:56.319Z,0
2016-12-17T02:55:55.999Z,0
2016-12-17T02:56:55.983Z,0
2016-12-17T02:57:56.271Z,0
2016-12-17T02:58:55.948Z,0
2016-12-17T02:59:55.929Z,0
2016-12-17T03:00:55.912Z,0
2016-12-17T03:01:55.895Z,0
2016-12-17T03:02:55.883Z,0
2016-12-17T03:03:55.865Z,0
2016-12-17T03:04:56.509Z,0
2016-12-17T03:05:55.828Z,0
2016-12-17T03:06:55.811Z,0
2016-12-17T03:07:55.793Z,0
2016-12-17T03:08:55.810Z,0
2016-12-17T03:09:55.758Z,0
2016-12-17T03:10:55.746Z,0
2016-12-17T03:11:55.723Z,0
2016-12-17T03:12:55.708Z,0
2016-12-17T03:13:55.694Z,0
2016-12-17T03:14:55.676Z,0
2016-12-17T03:15:55.657Z,0
2016-12-17T03:16:55.639Z,0
2016-12-17T03:17:55.622Z,0
2016-12-17T03:18:55.639Z,0
2016-12-17T03:19:55.587Z,0
2016-12-17T03:20:55.570Z,0
2016-12-17T03:21:55.559Z,0
2016-12-17T03:22:55.535Z,0
2016-12-17T03:23:55.823Z,0
2016-12-17T03:24:55.505Z,0
2016-12-17T03:25:55.788Z,0
2016-12-17T03:26:55.468Z,0
2016-12-17T03:27:55.453Z,0
2016-12-17T03:28:55.434Z,0
2016-12-17T03:29:55.415Z,0
2016-12-17T03:30:55.400Z,0
2016-12-17T03:31:55.387Z,0
2016-12-17T03:32:55.396Z,0
2016-12-17T03:33:55.355Z,0
2016-12-17T03:34:55.332Z,0
2016-12-17T03:35:55.317Z,0
2016-12-17T03:36:55.301Z,0
2016-12-17T03:37:55.278Z,0
2016-12-17T03:38:55.263Z,0
2016-12-17T03:39:55.242Z,0
2016-12-17T03:40:55.226Z,0
2016-12-17T03:41:55.512Z,0
2016-12-17T03:42:55.499Z,0
2016-12-17T03:43:55.784Z,0
2016-12-17T03:44:55.158Z,0
2016-12-17T03:45:55.143Z,0
2016-12-17T03:46:55.124Z,0
2016-12-17T03:47:55.106Z,0
2016-12-17T03:48:55.099Z,0
2016-12-17T03:49:55.073Z,0
2016-12-17T03:50:55.060Z,0
2016-12-17T03:51:55.040Z,0
2016-12-17T03:52:55.027Z,0
2016-12-17T03:53:55.005Z,0
2016-12-17T03:54:55.019Z,0
2016-12-17T03:55:54.975Z,0
2016-12-17T03:56:54.956Z,0
2016-12-17T03:57:54.937Z,0
2016-12-17T03:58:54.920Z,0
2016-12-17T03:59:54.904Z,0
2016-12-17T04:00:54.886Z,0
2016-12-17T04:01:54.868Z,0
2016-12-17T04:02:54.849Z,0
2016-12-17T04:03:54.834Z,0
2016-12-17T04:04:54.814Z,0
2016-12-17T04:05:54.797Z,0
2016-12-17T04:06:54.781Z,0
2016-12-17T04:07:54.766Z,0
2016-12-17T04:08:55.353Z,0
2016-12-17T04:09:54.730Z,0
2016-12-17T04:10:55.016Z,0
2016-12-17T04:11:54.696Z,0
2016-12-17T04:12:54.674Z,0
2016-12-17T04:13:54.660Z,0
2016-12-17T04:14:54.641Z,0
2016-12-17T04:15:54.651Z,0
2016-12-17T04:16:54.610Z,0
2016-12-17T04:17:54.592Z,0
2016-12-17T04:18:54.573Z,0
2016-12-17T04:19:54.558Z,0
2016-12-17T04:20:54.841Z,0
2016-12-17T04:21:54.522Z,0
2016-12-17T04:22:54.509Z,0
2016-12-17T04:23:54.489Z,0
2016-12-17T04:24:54.499Z,0
2016-12-17T04:25:54.454Z,0
2016-12-17T04:26:54.434Z,0
2016-12-17T04:27:54.423Z,0
2016-12-17T04:28:54.404Z,0
2016-12-17T04:29:55.002Z,0
2016-12-17T04:30:54.367Z,0
2016-12-17T04:31:54.352Z,0
2016-12-17T04:32:54.335Z,0
2016-12-17T04:33:54.323Z,0
2016-12-17T04:34:54.302Z,0
2016-12-17T04:35:54.286Z,0
2016-12-17T04:36:54.272Z,0
2016-12-17T04:37:54.252Z,0
2016-12-17T04:38:54.235Z,0
2016-12-17T04:39:54.521Z,0
2016-12-17T04:40:54.211Z,0
2016-12-17T04:41:54.188Z,0
2016-12-17T04:42:54.167Z,0
2016-12-17T04:43:54.154Z,0
2016-12-17T04:44:54.443Z,0
2016-12-17T04:45:54.130Z,0
2016-12-17T04:46:54.113Z,0
2016-12-17T04:47:54.391Z,0
2016-12-17T04:48:54.073Z,0
2016-12-17T04:49:54.054Z,0
2016-12-17T04:50:54.344Z,0
2016-12-17T04:51:54.059Z,0
2016-12-17T04:52:54.007Z,0
2016-12-17T04:53:53.996Z,0
2016-12-17T04:54:53.978Z,0
2016-12-17T04:55:53.967Z,0
2016-12-17T04:56:54.249Z,0
2016-12-17T04:57:53.928Z,0
2016-12-17T04:58:53.916Z,0
2016-12-17T04:59:53.895Z,0
2016-12-17T05:00:53.881Z,0
2016-12-17T05:01:53.864Z,0
2016-12-17T05:02:53.856Z,0
2016-12-17T05:03:53.839Z,0
2016-12-17T05:04:53.824Z,0
2016-12-17T05:05:53.805Z,0
2016-12-17T05:06:53.789Z,0
2016-12-17T05:07:53.774Z,0
2016-12-17T05:08:53.756Z,0
2016-12-17T05:09:53.741Z,0
2016-12-17T05:10:53.728Z,0
2016-12-17T05:11:53.709Z,0
2016-12-17T05:12:53.695Z,0
2016-12-17T05:13:53.679Z,0
2016-12-17T05:14:53.661Z,0
2016-12-17T05:15:53.651Z,0
2016-12-17T05:16:53.633Z,0
2016-12-17T05:17:53.621Z,0
2016-12-17T05:18:53.606Z,0
2016-12-17T05:19:53.613Z,0
2016-12-17T05:20:53.879Z,0
2016-12-17T05:21:53.559Z,0
2016-12-17T05:22:53.546Z,0
2016-12-17T05:23:53.532Z,0
2016-12-17T05:24:53.544Z,0
2016-12-17T05:25:53.505Z,0
2016-12-17T05:26:53.487Z,0
2016-12-17T05:27:53.469Z,0
2016-12-17T05:28:53.454Z,0
2016-12-17T05:29:53.438Z,0
2016-12-17T05:30:53.443Z,0
2016-12-17T05:31:53.408Z,0
2016-12-17T05:32:53.394Z,0
2016-12-17T05:33:53.680Z,0
2016-12-17T05:34:53.364Z,0
2016-12-17T05:35:53.350Z,0
2016-12-17T05:36:53.332Z,0
2016-12-17T05:37:53.323Z,0
2016-12-17T05:38:53.310Z,0
2016-12-17T05:39:53.289Z,0
2016-12-17T05:40:53.274Z,0
2016-12-17T05:41:53.257Z,0
2016-12-17T05:42:53.247Z,0
2016-12-17T05:43:53.228Z,0
2016-12-17T05:44:53.214Z,0
2016-12-17T05:45:53.208Z,0
2016-12-17T05:46:53.184Z,0
2016-12-17T05:47:53.479Z,0
2016-12-17T05:48:53.161Z,0
2016-12-17T05:49:53.142Z,0
2016-12-17T05:50:53.125Z,0
2016-12-17T05:51:53.112Z,0
2016-12-17T05:52:53.400Z,0
2016-12-17T05:53:53.082Z,0
2016-12-17T05:54:53.066Z,0
2016-12-17T05:55:53.049Z,0
2016-12-17T05:56:53.375Z,0
2016-12-17T05:57:53.023Z,0
2016-12-17T05:58:53.011Z,0
2016-12-17T05:59:52.995Z,0
2016-12-17T06:00:53.282Z,0
2016-12-17T06:01:52.965Z,0
2016-12-17T06:02:52.946Z,0
2016-12-17T06:03:52.933Z,0
2016-12-17T06:04:52.918Z,0
2016-12-17T06:05:52.904Z,0
2016-12-17T06:06:52.892Z,0
2016-12-17T06:07:52.875Z,0
2016-12-17T06:08:52.860Z,0
2016-12-17T06:09:53.162Z,0
2016-12-17T06:10:52.831Z,0
2016-12-17T06:11:52.818Z,0
2016-12-17T06:12:52.804Z,0
2016-12-17T06:13:52.794Z,0
2016-12-17T06:14:52.775Z,0
2016-12-17T06:15:52.763Z,0
2016-12-17T06:16:52.743Z,0
2016-12-17T06:17:53.342Z,0
2016-12-17T06:18:53.020Z,0
2016-12-17T06:19:52.702Z,0
2016-12-17T06:20:52.687Z,0
2016-12-17T06:21:52.670Z,0
2016-12-17T06:22:52.676Z,0
2016-12-17T06:23:52.643Z,0
2016-12-17T06:24:52.931Z,0
2016-12-17T06:25:52.614Z,0
2016-12-17T06:26:52.598Z,0
2016-12-17T06:27:52.585Z,0
2016-12-17T06:28:52.568Z,0
2016-12-17T06:29:52.557Z,0
2016-12-17T06:30:52.537Z,0
2016-12-17T06:31:52.523Z,0
2016-12-17T06:32:52.513Z,0
2016-12-17T06:33:52.494Z,0
2016-12-17T06:34:52.484Z,0
2016-12-17T06:35:52.465Z,0
2016-12-17T06:36:52.456Z,0
2016-12-17T06:37:52.437Z,4
2016-12-17T06:38:52.724Z,4
2016-12-17T06:39:52.447Z,0
2016-12-17T06:40:52.390Z,4
2016-12-17T06:41:52.380Z,4
2016-12-17T06:42:52.671Z,4
2016-12-17T06:43:52.352Z,4
2016-12-17T06:44:52.671Z,4
2016-12-17T06:45:52.324Z,8
2016-12-17T06:46:52.307Z,8
2016-12-17T06:47:52.595Z,8
2016-12-17T06:48:52.882Z,12
2016-12-17T06:49:52.262Z,12
2016-12-17T06:50:52.244Z,16
2016-12-17T06:51:52.238Z,16
2016-12-17T06:52:52.519Z,16
2016-12-17T06:53:52.202Z,20
2016-12-17T06:54:52.196Z,20
2016-12-17T06:55:52.175Z,28
2016-12-17T06:56:52.160Z,28
2016-12-17T06:57:52.155Z,32
2016-12-17T06:58:52.132Z,36
2016-12-17T06:59:52.123Z,40
2016-12-17T07:00:52.103Z,44
2016-12-17T07:01:52.087Z,48
2016-12-17T07:02:52.072Z,56
2016-12-17T07:03:52.361Z,60
2016-12-17T07:04:52.347Z,64
2016-12-17T07:05:52.040Z,76
2016-12-17T07:06:52.017Z,80
2016-12-17T07:07:52.002Z,88
2016-12-17T07:08:51.983Z,96
2016-12-17T07:09:51.991Z,108
2016-12-17T07:10:51.963Z,116
2016-12-17T07:11:51.971Z,124
2016-12-17T07:12:51.932Z,132
2016-12-17T07:13:52.219Z,144
2016-12-17T07:14:51.902Z,148
2016-12-17T07:15:51.890Z,168
2016-12-17T07:16:51.874Z,184
2016-12-17T07:17:51.856Z,196
2016-12-17T07:18:52.145Z,208
2016-12-17T07:19:51.832Z,220
2016-12-17T07:20:51.813Z,232
2016-12-17T07:21:51.797Z,252
2016-12-17T07:22:51.784Z,268
2016-12-17T07:23:51.775Z,276
2016-12-17T07:24:51.756Z,280
2016-12-17T07:25:51.746Z,296
2016-12-17T07:26:51.731Z,304
2016-12-17T07:27:51.714Z,316
2016-12-17T07:28:51.699Z,316
2016-12-17T07:29:51.684Z,332
2016-12-17T07:30:51.669Z,348
2016-12-17T07:31:51.657Z,360
2016-12-17T07:32:51.644Z,380
2016-12-17T07:33:51.626Z,388
2016-12-17T07:34:51.948Z,388
2016-12-17T07:35:51.600Z,404
2016-12-17T07:36:51.587Z,412
2016-12-17T07:37:51.574Z,436
2016-12-17T07:38:51.557Z,464
2016-12-17T07:39:51.543Z,488
2016-12-17T07:40:51.534Z,524
2016-12-17T07:41:51.515Z,564
2016-12-17T07:42:51.507Z,576
2016-12-17T07:43:51.519Z,572
2016-12-17T07:44:51.476Z,636
2016-12-17T07:45:51.458Z,624
2016-12-17T07:46:51.442Z,664
2016-12-17T07:47:51.432Z,708
2016-12-17T07:48:51.412Z,672
2016-12-17T07:49:51.403Z,732
2016-12-17T07:50:51.386Z,756
2016-12-17T07:51:51.376Z,744
2016-12-17T07:52:51.362Z,816
2016-12-17T07:53:51.348Z,808
2016-12-17T07:54:51.332Z,860
2016-12-17T07:55:51.316Z,896
2016-12-17T07:56:51.609Z,932
2016-12-17T07:57:51.286Z,960
2016-12-17T07:58:51.584Z,920
2016-12-17T07:59:51.265Z,988
2016-12-17T08:00:51.246Z,972
2016-12-17T08:01:51.231Z,1036
2016-12-17T08:02:51.219Z,1024
2016-12-17T08:03:51.211Z,1044
2016-12-17T08:04:51.191Z,1092
2016-12-17T08:05:51.179Z,1092
2016-12-17T08:06:51.166Z,1072
2016-12-17T08:07:51.152Z,1100
2016-12-17T08:08:51.142Z,1156
2016-12-17T08:09:51.131Z,1180
2016-12-17T08:10:51.110Z,1172
2016-12-17T08:11:51.096Z,1268
2016-12-17T08:12:51.388Z,1272
2016-12-17T08:13:51.071Z,1300
2016-12-17T08:14:51.053Z,1268
2016-12-17T08:15:51.045Z,1300
2016-12-17T08:16:51.026Z,1344
2016-12-17T08:17:51.015Z,1304
2016-12-17T08:18:50.998Z,1256
2016-12-17T08:19:50.985Z,1252
2016-12-17T08:20:50.973Z,1236
2016-12-17T08:21:50.956Z,1244
2016-12-17T08:22:50.945Z,1300
2016-12-17T08:23:50.932Z,1284
2016-12-17T08:24:50.916Z,1312
2016-12-17T08:25:50.907Z,1364
2016-12-17T08:26:50.890Z,1332
2016-12-17T08:27:50.874Z,1316
2016-12-17T08:28:50.863Z,1364
2016-12-17T08:29:50.847Z,1400
2016-12-17T08:30:50.836Z,1440
2016-12-17T08:31:50.821Z,1420
2016-12-17T08:32:50.820Z,1428
2016-12-17T08:33:50.801Z,1512
2016-12-17T08:34:50.783Z,1584
2016-12-17T08:35:51.072Z,1560
2016-12-17T08:36:50.751Z,1580
2016-12-17T08:37:50.740Z,1660
2016-12-17T08:38:50.731Z,1684
2016-12-17T08:39:50.716Z,1716
2016-12-17T08:40:50.700Z,1780
2016-12-17T08:41:50.690Z,1812
2016-12-17T08:42:50.678Z,1824
2016-12-17T08:43:50.661Z,1836
2016-12-17T08:44:50.649Z,1896
2016-12-17T08:45:50.632Z,1904
2016-12-17T08:46:50.618Z,1836
2016-12-17T08:47:50.605Z,1836
2016-12-17T08:48:50.591Z,1900
2016-12-17T08:49:50.610Z,1960
2016-12-17T08:50:50.564Z,2000
2016-12-17T08:51:50.558Z,1968
2016-12-17T08:52:50.537Z,2012
2016-12-17T08:53:50.525Z,2040
2016-12-17T08:54:50.511Z,2064
2016-12-17T08:55:50.501Z,2064
2016-12-17T08:56:50.488Z,2048
2016-12-17T08:57:50.470Z,1996
2016-12-17T08:58:50.457Z,2176
2016-12-17T08:59:50.445Z,2276
2016-12-17T09:00:50.433Z,2228
2016-12-17T09:01:50.420Z,2144
2016-12-17T09:02:50.404Z,2132
2016-12-17T09:03:50.391Z,2076
2016-12-17T09:04:50.389Z,2072
2016-12-17T09:05:50.364Z,2168
2016-12-17T09:06:50.353Z,2152
2016-12-17T09:07:50.339Z,2228
2016-12-17T09:08:50.322Z,2396
2016-12-17T09:09:50.313Z,2260
2016-12-17T09:10:50.301Z,2396
2016-12-17T09:11:50.287Z,2372
2016-12-17T09:12:50.272Z,2312
2016-12-17T09:13:50.260Z,2360
2016-12-17T09:14:50.248Z,2348
2016-12-17T09:15:50.234Z,2392
2016-12-17T09:16:50.222Z,2400
2016-12-17T09:17:50.201Z,2408
2016-12-17T09:18:50.192Z,2420
2016-12-17T09:19:50.175Z,2584
2016-12-17T09:20:50.164Z,2540
2016-12-17T09:21:50.153Z,2520
2016-12-17T09:22:50.139Z,2524
2016-12-17T09:23:50.125Z,2576
2016-12-17T09:24:50.112Z,2652
2016-12-17T09:25:50.097Z,2612
2016-12-17T09:26:50.085Z,2596
2016-12-17T09:27:50.073Z,2584
2016-12-17T09:28:50.379Z,2572
2016-12-17T09:29:50.047Z,2652
2016-12-17T09:30:50.032Z,2636
2016-12-17T09:31:50.020Z,2660
2016-12-17T09:32:50.009Z,2672
2016-12-17T09:33:49.997Z,2672
2016-12-17T09:34:49.976Z,2588
2016-12-17T09:35:49.962Z,2588
2016-12-17T09:36:49.956Z,2752
2016-12-17T09:37:49.937Z,2568
2016-12-17T09:38:49.931Z,2600
2016-12-17T09:39:49.914Z,2572
2016-12-17T09:40:49.900Z,2588
2016-12-17T09:41:49.883Z,2680
2016-12-17T09:42:49.873Z,2728
2016-12-17T09:43:49.857Z,2812
2016-12-17T09:44:49.845Z,2824
2016-12-17T09:45:49.832Z,2780
2016-12-17T09:46:49.821Z,2692
2016-12-17T09:47:49.821Z,2824
2016-12-17T09:48:49.792Z,2744
2016-12-17T09:49:49.778Z,2764
2016-12-17T09:50:49.766Z,2900
2016-12-17T09:51:49.754Z,3044
2016-12-17T09:52:50.043Z,3088
2016-12-17T09:53:49.724Z,3148
2016-12-17T09:54:49.715Z,3096
2016-12-17T09:55:49.739Z,3112
2016-12-17T09:56:49.696Z,3120
2016-12-17T09:57:49.680Z,3160
2016-12-17T09:58:49.658Z,3096
2016-12-17T09:59:49.646Z,2972
2016-12-17T10:00:49.633Z,2960
2016-12-17T10:01:49.626Z,2820
2016-12-17T10:02:49.607Z,2912
2016-12-17T10:03:49.597Z,2980
2016-12-17T10:04:49.580Z,3184
2016-12-17T10:05:49.878Z,3168
2016-12-17T10:06:49.894Z,3080
2016-12-17T10:07:49.548Z,2900
2016-12-17T10:08:49.532Z,2960
2016-12-17T10:09:49.553Z,2928
2016-12-17T10:10:49.505Z,2808
2016-12-17T10:11:49.495Z,2756
2016-12-17T10:12:49.478Z,2692
2016-12-17T10:13:49.469Z,2856
2016-12-17T10:14:49.452Z,2868
2016-12-17T10:15:49.441Z,2784
2016-12-17T10:16:49.429Z,2724
2016-12-17T10:17:49.419Z,2804
2016-12-17T10:18:49.400Z,2828
2016-12-17T10:19:49.388Z,2692
2016-12-17T10:20:49.374Z,2728
2016-12-17T10:21:49.366Z,2656
2016-12-17T10:22:49.349Z,2644
2016-12-17T10:23:49.336Z,2700
2016-12-17T10:24:49.321Z,2720
2016-12-17T10:25:49.610Z,2680
2016-12-17T10:26:49.299Z,2640
2016-12-17T10:27:49.586Z,2612
2016-12-17T10:28:49.570Z,2664
2016-12-17T10:29:49.256Z,2644
2016-12-17T10:30:49.249Z,2604
2016-12-17T10:31:49.233Z,2628
2016-12-17T10:32:49.218Z,2608
2016-12-17T10:33:49.210Z,2600
2016-12-17T10:34:49.189Z,2636
2016-12-17T10:35:49.177Z,2652
2016-12-17T10:36:49.166Z,2612
2016-12-17T10:37:49.152Z,2508
2016-12-17T10:38:49.137Z,2420
2016-12-17T10:39:49.125Z,2392
2016-12-17T10:40:49.112Z,2416
2016-12-17T10:41:49.101Z,2516
2016-12-17T10:42:49.085Z,2520
2016-12-17T10:43:49.075Z,2540
2016-12-17T10:44:49.060Z,2488
2016-12-17T10:45:49.047Z,2504
2016-12-17T10:46:49.054Z,2548
2016-12-17T10:47:49.019Z,2504
2016-12-17T10:48:49.012Z,2504
2016-12-17T10:49:48.994Z,2428
2016-12-17T10:50:48.981Z,2480
2016-12-17T10:51:48.968Z,2432
2016-12-17T10:52:48.955Z,2408
2016-12-17T10:53:49.247Z,2488
2016-12-17T10:54:48.928Z,2468
2016-12-17T10:55:48.928Z,2436
2016-12-17T10:56:48.903Z,2496
2016-12-17T10:57:48.890Z,2512
2016-12-17T10:58:48.882Z,2512
2016-12-17T10:59:48.861Z,2464
2016-12-17T11:00:48.850Z,2456
2016-12-17T11:01:48.837Z,2520
2016-12-17T11:02:48.824Z,2532
2016-12-17T11:03:48.814Z,2488
2016-12-17T11:04:48.798Z,2528
2016-12-17T11:05:48.800Z,2488
2016-12-17T11:06:48.772Z,2428
2016-12-17T11:07:48.761Z,2428
2016-12-17T11:08:48.751Z,2468
2016-12-17T11:09:48.745Z,2480
2016-12-17T11:10:48.721Z,2468
2016-12-17T11:11:48.707Z,2408
2016-12-17T11:12:48.697Z,2444
2016-12-17T11:13:48.680Z,2496
2016-12-17T11:14:48.669Z,2456
2016-12-17T11:15:48.658Z,2428
2016-12-17T11:16:48.639Z,2448
2016-12-17T11:17:48.629Z,2572
2016-12-17T11:18:48.616Z,2676
2016-12-17T11:19:48.604Z,2648
2016-12-17T11:20:48.587Z,2588
2016-12-17T11:21:48.581Z,2648
2016-12-17T11:22:48.593Z,2852
2016-12-17T11:23:48.552Z,3084
2016-12-17T11:24:48.532Z,3176
2016-12-17T11:25:48.523Z,2884
2016-12-17T11:26:48.510Z,2704
2016-12-17T11:27:48.494Z,2584
2016-12-17T11:28:48.480Z,2572
2016-12-17T11:29:48.471Z,2692
2016-12-17T11:30:48.458Z,2728
2016-12-17T11:31:48.440Z,2664
2016-12-17T11:32:48.456Z,2520
2016-12-17T11:33:48.415Z,2388
2016-12-17T11:34:48.400Z,2320
2016-12-17T11:35:48.387Z,2344
2016-12-17T11:36:48.380Z,2368
2016-12-17T11:37:48.363Z,2352
2016-12-17T11:38:48.356Z,2304
2016-12-17T11:39:48.360Z,2204
2016-12-17T11:40:48.320Z,2276
2016-12-17T11:41:48.308Z,2324
2016-12-17T11:42:48.297Z,2252
2016-12-17T11:43:48.591Z,2192
2016-12-17T11:44:48.269Z,2108
2016-12-17T11:45:48.255Z,1720
2016-12-17T11:46:48.243Z,1540
2016-12-17T11:47:48.235Z,1500
2016-12-17T11:48:48.220Z,1528
2016-12-17T11:49:48.205Z,1904
2016-12-17T11:50:48.193Z,2112
2016-12-17T11:51:48.179Z,2204
2016-12-17T11:52:48.163Z,2204
2016-12-17T11:53:48.152Z,2172
2016-12-17T11:54:48.139Z,2136
2016-12-17T11:55:48.127Z,2188
2016-12-17T11:56:48.111Z,2252
2016-12-17T11:57:48.097Z,2276
2016-12-17T11:58:48.088Z,2296
2016-12-17T11:59:48.071Z,2312
2016-12-17T12:00:48.061Z,1868
2016-12-17T12:01:48.048Z,1576
2016-12-17T12:02:48.036Z,1768
2016-12-17T12:03:48.017Z,1680
2016-12-17T12:04:48.007Z,1460
2016-12-17T12:05:48.020Z,1404
2016-12-17T12:06:48.285Z,1320
2016-12-17T12:07:47.971Z,1348
2016-12-17T12:08:47.955Z,1388
2016-12-17T12:09:47.942Z,1512
2016-12-17T12:10:47.930Z,1432
2016-12-17T12:11:47.917Z,1340
2016-12-17T12:12:47.901Z,1284
2016-12-17T12:13:47.887Z,1236
2016-12-17T12:14:47.878Z,1364
2016-12-17T12:15:47.862Z,1672
2016-12-17T12:16:47.851Z,1828
2016-12-17T12:17:47.861Z,1988
2016-12-17T12:18:47.826Z,2096
2016-12-17T12:19:47.811Z,2008
2016-12-17T12:20:47.797Z,2144
2016-12-17T12:21:47.786Z,2220
2016-12-17T12:22:47.771Z,2364
2016-12-17T12:23:47.758Z,2364
2016-12-17T12:24:47.745Z,2632
2016-12-17T12:25:48.031Z,2708
2016-12-17T12:26:47.721Z,2768
2016-12-17T12:27:47.709Z,2848
2016-12-17T12:28:47.690Z,2876
2016-12-17T12:29:47.680Z,2616
2016-12-17T12:30:47.664Z,2400
2016-12-17T12:31:47.654Z,2560
2016-12-17T12:32:47.642Z,2624
2016-12-17T12:33:47.623Z,2636
2016-12-17T12:34:47.644Z,2704
2016-12-17T12:35:47.600Z,2708
2016-12-17T12:36:47.588Z,2744
2016-12-17T12:37:47.571Z,2780
2016-12-17T12:38:47.555Z,2732
2016-12-17T12:39:47.550Z,2608
2016-12-17T12:40:47.531Z,2532
2016-12-17T12:41:47.523Z,2504
2016-12-17T12:42:47.541Z,2464
2016-12-17T12:43:47.497Z,2404
2016-12-17T12:44:47.481Z,2424
2016-12-17T12:45:47.782Z,2468
2016-12-17T12:46:47.455Z,2464
2016-12-17T12:47:47.443Z,2432
2016-12-17T12:48:47.426Z,2364
2016-12-17T12:49:47.449Z,2408
2016-12-17T12:50:47.413Z,2464
2016-12-17T12:51:47.709Z,2500
2016-12-17T12:52:47.381Z,2344
2016-12-17T12:53:47.368Z,2236
2016-12-17T12:54:47.374Z,2224
2016-12-17T12:55:47.345Z,2108
2016-12-17T12:56:47.326Z,2076
2016-12-17T12:57:47.316Z,2008
2016-12-17T12:58:47.607Z,2056
2016-12-17T12:59:47.282Z,2040
2016-12-17T13:00:47.306Z,2028
2016-12-17T13:01:47.263Z,1984
2016-12-17T13:02:47.251Z,1984
2016-12-17T13:03:47.235Z,1928
2016-12-17T13:04:47.221Z,1920
2016-12-17T13:05:47.212Z,2004
2016-12-17T13:06:47.195Z,2012
2016-12-17T13:07:47.486Z,2012
2016-12-17T13:08:47.171Z,1980
2016-12-17T13:09:47.154Z,1976
2016-12-17T13:10:47.150Z,1972
2016-12-17T13:11:47.134Z,2016
2016-12-17T13:12:47.115Z,1920
2016-12-17T13:13:47.107Z,1812
2016-12-17T13:14:47.091Z,1788
2016-12-17T13:15:47.096Z,1724
2016-12-17T13:16:47.064Z,1652
2016-12-17T13:17:47.055Z,1668
2016-12-17T13:18:47.038Z,1696
2016-12-17T13:19:47.034Z,1740
2016-12-17T13:20:47.018Z,1660
2016-12-17T13:21:46.996Z,1792
2016-12-17T13:22:46.989Z,1832
2016-12-17T13:23:46.975Z,1660
2016-12-17T13:24:46.967Z,1620
2016-12-17T13:25:46.985Z,1568
2016-12-17T13:26:46.937Z,1552
2016-12-17T13:27:46.921Z,1488
2016-12-17T13:28:46.910Z,1432
2016-12-17T13:29:46.901Z,1416
2016-12-17T13:30:46.885Z,1396
2016-12-17T13:31:46.879Z,1512
2016-12-17T13:32:46.858Z,1540
2016-12-17T13:33:46.844Z,1404
2016-12-17T13:34:46.834Z,1260
2016-12-17T13:35:47.129Z,1128
2016-12-17T13:36:46.806Z,1144
2016-12-17T13:37:46.792Z,1164
2016-12-17T13:38:46.781Z,1208
2016-12-17T13:39:46.770Z,1216
2016-12-17T13:40:47.083Z,1216
2016-12-17T13:41:47.056Z,1192
2016-12-17T13:42:46.724Z,1204
2016-12-17T13:43:46.724Z,1204
2016-12-17T13:44:46.700Z,1204
2016-12-17T13:45:46.691Z,1148
2016-12-17T13:46:46.669Z,1164
2016-12-17T13:47:46.659Z,1108
2016-12-17T13:48:46.650Z,1048
2016-12-17T13:49:46.633Z,1068
2016-12-17T13:50:46.618Z,1104
2016-12-17T13:51:46.609Z,1136
2016-12-17T13:52:46.597Z,1132
2016-12-17T13:53:46.577Z,1104
2016-12-17T13:54:46.566Z,1156
2016-12-17T13:55:46.557Z,1140
2016-12-17T13:56:46.541Z,972
2016-12-17T13:57:46.526Z,928
2016-12-17T13:58:46.821Z,872
2016-12-17T13:59:46.499Z,800
2016-12-17T14:00:46.487Z,804
2016-12-17T14:01:46.475Z,792
2016-12-17T14:02:46.458Z,760